createdAt,value
2023-04-08T00:00:46.088Z,5.33
2023-04-08T00:03:49.436Z,5.24
2023-04-08T00:06:52.684Z,5.23
2023-04-08T00:09:55.848Z,5.25
2023-04-08T00:13:01.081Z,5.18
2023-04-08T00:16:04.736Z,5.15
2023-04-08T00:19:08.090Z,5.26
2023-04-08T00:22:11.861Z,5.31
2023-04-08T00:25:14.983Z,5.26
2023-04-08T00:28:18.025Z,5.31
2023-04-08T00:31:22.219Z,5.29
2023-04-08T00:34:27.265Z,5.31
2023-04-08T00:37:31.798Z,5.21
2023-04-08T00:40:36.176Z,5.21
2023-04-08T00:43:40.072Z,5.21
2023-04-08T00:46:43.940Z,5.28
2023-04-08T00:49:47.444Z,5.17
2023-04-08T00:52:50.536Z,5.24
2023-04-08T00:55:53.579Z,5.17
2023-04-08T00:58:56.875Z,5.16
2023-04-08T01:02:12.941Z,5.11
2023-04-08T01:05:27.080Z,5.19
2023-04-08T01:08:31.802Z,5.24
2023-04-08T01:11:37.395Z,5.15
2023-04-08T01:14:44.316Z,5.19
2023-04-08T01:17:50.593Z,5.10
2023-04-08T01:20:55.494Z,5.19
2023-04-08T01:24:16.881Z,5.19
2023-04-08T01:27:20.793Z,5.05
2023-04-08T01:30:26.133Z,5.09
2023-04-08T01:33:30.932Z,5.01
2023-04-08T01:36:36.249Z,4.92
2023-04-08T01:43:10.034Z,4.90
2023-04-08T01:46:15.956Z,4.75
2023-04-08T01:49:21.506Z,4.87
2023-04-08T01:52:26.910Z,4.88
2023-04-08T01:55:32.300Z,4.87
2023-04-08T01:58:42.286Z,4.91
2023-04-08T02:01:46.889Z,4.85
2023-04-08T02:04:50.225Z,4.80
2023-04-08T02:07:53.483Z,4.88
2023-04-08T02:10:56.956Z,4.80
2023-04-08T02:14:01.518Z,4.85
2023-04-08T02:17:11.139Z,4.83
2023-04-08T02:20:23.444Z,4.85
2023-04-08T02:23:29.793Z,4.82
2023-04-08T02:26:36.543Z,4.82
2023-04-08T02:29:41.628Z,4.92
2023-04-08T02:32:46.938Z,4.92
2023-04-08T02:35:52.357Z,4.80
2023-04-08T02:38:56.659Z,4.83
2023-04-08T02:41:59.938Z,4.84
2023-04-08T02:45:03.451Z,4.79
2023-04-08T02:48:07.510Z,4.85
2023-04-08T02:51:11.100Z,4.81
2023-04-08T02:54:14.480Z,4.75
2023-04-08T02:57:17.760Z,4.84
2023-04-08T03:00:23.183Z,4.78
2023-04-08T03:03:30.491Z,4.73
2023-04-08T03:06:34.520Z,4.79
2023-04-08T03:09:37.843Z,4.81
2023-04-08T03:12:41.809Z,4.94
2023-04-08T03:15:45.208Z,5.00
2023-04-08T03:18:50.402Z,4.89
2023-04-08T03:21:53.740Z,4.91
2023-04-08T03:24:56.935Z,4.87
2023-04-08T03:28:00.187Z,4.82
2023-04-08T03:31:04.935Z,4.75
2023-04-08T03:34:08.318Z,4.82
2023-04-08T03:37:11.873Z,4.91
2023-04-08T03:40:14.849Z,4.91
2023-04-08T03:43:22.130Z,4.88
2023-04-08T03:46:25.583Z,4.75
2023-04-08T03:49:29.301Z,4.73
2023-04-08T03:52:32.370Z,4.84
2023-04-08T03:55:35.881Z,4.82
2023-04-08T03:58:38.824Z,4.84
2023-04-08T04:01:42.235Z,4.90
2023-04-08T04:04:45.475Z,4.87
2023-04-08T04:07:48.728Z,4.80
2023-04-08T04:10:52.560Z,4.76
2023-04-08T04:13:55.754Z,4.78
2023-04-08T04:16:58.965Z,4.79
2023-04-08T04:20:05.678Z,4.93
2023-04-08T04:23:10.464Z,4.81
2023-04-08T04:26:13.532Z,4.90
2023-04-08T04:29:16.894Z,4.85
2023-04-08T04:32:20.439Z,4.74
2023-04-08T04:35:23.979Z,4.72
2023-04-08T04:38:27.324Z,4.72
2023-04-08T04:41:30.971Z,4.67
2023-04-08T04:44:34.183Z,4.71
2023-04-08T04:47:37.739Z,4.75
2023-04-08T04:50:41.295Z,4.66
2023-04-08T04:53:44.641Z,4.75
2023-04-08T04:56:47.928Z,4.75
2023-04-08T04:59:50.965Z,4.76
2023-04-08T05:02:54.228Z,4.73
2023-04-08T05:05:57.668Z,4.75
2023-04-08T05:09:01.281Z,4.79
2023-04-08T05:12:04.960Z,4.75
2023-04-08T05:15:08.472Z,4.80
2023-04-08T05:18:12.146Z,4.68
2023-04-08T05:21:15.791Z,4.68
2023-04-08T05:24:21.934Z,4.66
2023-04-08T05:27:25.291Z,4.72
2023-04-08T05:30:29.682Z,4.60
2023-04-08T05:33:33.190Z,4.50
2023-04-08T05:36:36.760Z,4.57
2023-04-08T05:39:40.185Z,4.54
2023-04-08T05:42:43.373Z,4.55
2023-04-08T05:45:46.918Z,4.56
2023-04-08T05:48:51.132Z,4.47
2023-04-08T05:51:54.642Z,4.51
2023-04-08T05:54:57.762Z,4.53
2023-04-08T05:58:01.040Z,4.51
2023-04-08T06:01:06.561Z,4.57
2023-04-08T06:04:10.151Z,4.53
2023-04-08T06:07:13.707Z,4.46
2023-04-08T06:10:17.034Z,4.46
2023-04-08T06:13:22.938Z,4.55
2023-04-08T06:16:28.926Z,4.55
2023-04-08T06:19:32.330Z,4.55
2023-04-08T06:22:36.511Z,4.48
2023-04-08T06:25:39.868Z,4.52
2023-04-08T06:28:43.128Z,4.46
2023-04-08T06:31:46.374Z,4.50
2023-04-08T06:34:49.679Z,4.53
2023-04-08T06:37:53.384Z,4.48
2023-04-08T06:40:56.926Z,4.40
2023-04-08T06:44:00.528Z,4.34
2023-04-08T06:47:03.850Z,4.41
2023-04-08T06:50:07.893Z,4.37
2023-04-08T06:53:12.064Z,4.37
2023-04-08T06:56:15.131Z,4.36
2023-04-08T06:59:18.361Z,4.40
2023-04-08T07:02:22.324Z,4.41
2023-04-08T07:05:26.137Z,4.37
2023-04-08T07:08:29.834Z,4.43
2023-04-08T07:11:33.966Z,4.44
2023-04-08T07:14:36.892Z,4.49
2023-04-08T07:17:40.236Z,4.46
2023-04-08T07:20:43.802Z,4.54
2023-04-08T07:23:47.135Z,4.54
2023-04-08T07:26:50.600Z,4.51
2023-04-08T07:29:56.819Z,4.55
2023-04-08T07:33:01.110Z,4.52
2023-04-08T07:36:05.416Z,4.54
2023-04-08T07:39:08.742Z,4.70
2023-04-08T07:42:12.483Z,4.71
2023-04-08T07:45:16.254Z,4.75
2023-04-08T07:48:19.532Z,4.63
2023-04-08T07:51:22.570Z,4.66
2023-04-08T07:54:26.261Z,4.79
2023-04-08T07:57:29.332Z,4.85
2023-04-08T08:00:33.397Z,4.91
2023-04-08T08:03:36.978Z,4.85
2023-04-08T08:06:40.710Z,4.85
2023-04-08T08:09:44.090Z,4.86
2023-04-08T08:12:47.224Z,5.00
2023-04-08T08:15:53.991Z,5.01
2023-04-08T08:18:57.424Z,4.89
2023-04-08T08:22:01.222Z,4.91
2023-04-08T08:25:04.768Z,4.83
2023-04-08T08:28:08.584Z,4.89
2023-04-08T08:31:12.774Z,5.00
2023-04-08T08:34:16.668Z,5.05
2023-04-08T08:37:20.505Z,5.07
2023-04-08T08:40:25.844Z,4.90
2023-04-08T08:43:29.651Z,4.90
2023-04-08T08:46:33.302Z,4.95
2023-04-08T08:49:40.524Z,4.97
2023-04-08T08:52:51.381Z,5.02
2023-04-08T08:59:01.257Z,5.34
2023-04-08T09:02:27.667Z,5.40
2023-04-08T09:05:33.210Z,5.46
2023-04-08T09:08:38.008Z,5.43
2023-04-08T09:11:43.049Z,5.41
2023-04-08T09:14:46.749Z,5.51
2023-04-08T09:17:49.859Z,5.78
2023-04-08T09:20:54.363Z,5.88
2023-04-08T09:23:57.395Z,5.83
2023-04-08T09:27:01.086Z,5.85
2023-04-08T09:30:16.777Z,5.97
2023-04-08T09:33:22.799Z,5.97
2023-04-08T09:36:29.436Z,5.96
2023-04-08T09:39:32.506Z,6.06
2023-04-08T09:42:40.070Z,6.04
2023-04-08T09:45:46.893Z,6.11
2023-04-08T09:48:57.066Z,6.21
2023-04-08T09:52:21.313Z,6.29
2023-04-08T09:55:28.471Z,6.22
2023-04-08T09:58:39.938Z,6.23
2023-04-08T10:01:47.561Z,6.48
2023-04-08T10:04:54.209Z,6.54
2023-04-08T10:07:58.061Z,6.57
2023-04-08T10:11:01.670Z,6.55
2023-04-08T10:14:05.095Z,6.55
2023-04-08T10:17:27.889Z,6.64
2023-04-08T10:20:36.193Z,6.69
2023-04-08T10:23:55.196Z,6.87
2023-04-08T10:26:59.228Z,6.93
2023-04-08T10:30:02.708Z,7.14
2023-04-08T10:33:12.659Z,6.76
2023-04-08T10:36:16.807Z,6.91
2023-04-08T10:39:20.316Z,7.16
2023-04-08T10:42:27.872Z,7.27
2023-04-08T10:45:31.563Z,7.22
2023-04-08T10:48:34.740Z,7.41
2023-04-08T10:51:39.606Z,7.01
2023-04-08T10:54:48.476Z,7.04
2023-04-08T10:57:51.743Z,7.10
2023-04-08T11:00:55.075Z,6.91
2023-04-08T11:03:59.573Z,6.85
2023-04-08T11:07:06.268Z,7.00
2023-04-08T11:10:11.843Z,7.11
2023-04-08T11:13:17.064Z,7.14
2023-04-08T11:16:22.977Z,7.17
2023-04-08T11:19:26.873Z,7.17
2023-04-08T11:22:33.683Z,7.12
2023-04-08T11:25:36.927Z,6.88
2023-04-08T11:28:40.618Z,6.95
2023-04-08T11:31:44.526Z,6.89
2023-04-08T11:34:48.035Z,6.97
2023-04-08T11:37:52.709Z,7.10
2023-04-08T11:41:01.247Z,7.06
2023-04-08T11:44:05.857Z,7.13
2023-04-08T11:47:09.386Z,6.96
2023-04-08T11:50:13.314Z,6.69
2023-04-08T11:53:21.674Z,6.77
2023-04-08T11:56:26.981Z,6.78
2023-04-08T11:59:30.361Z,6.73
2023-04-08T12:02:34.245Z,7.01
2023-04-08T12:05:37.552Z,7.29
2023-04-08T12:08:40.740Z,7.46
2023-04-08T12:11:44.777Z,7.62
2023-04-08T12:14:48.380Z,7.49
2023-04-08T12:17:51.565Z,7.46
2023-04-08T12:20:56.110Z,7.42
2023-04-08T12:23:59.666Z,7.31
2023-04-08T12:27:05.031Z,7.24
2023-04-08T12:30:09.597Z,6.90
2023-04-08T12:33:17.397Z,6.79
2023-04-08T12:36:21.093Z,6.82
2023-04-08T12:39:24.694Z,6.75
2023-04-08T12:42:28.218Z,6.52
2023-04-08T12:45:32.131Z,6.28
2023-04-08T12:48:35.661Z,6.23
2023-04-08T12:51:40.258Z,6.21
2023-04-08T12:54:43.729Z,6.04
2023-04-08T12:57:47.764Z,6.02
2023-04-08T13:00:52.381Z,6.02
2023-04-08T13:03:55.985Z,6.13
2023-04-08T13:06:59.890Z,6.23
2023-04-08T13:10:03.978Z,6.21
2023-04-08T13:13:08.192Z,6.31
2023-04-08T13:16:11.807Z,6.25
2023-04-08T13:19:15.106Z,6.26
2023-04-08T13:22:18.776Z,6.17
2023-04-08T13:25:22.022Z,6.14
2023-04-08T13:28:25.716Z,6.00
2023-04-08T13:31:29.324Z,6.02
2023-04-08T13:34:32.756Z,5.98
2023-04-08T13:37:36.431Z,6.05
2023-04-08T13:40:42.540Z,6.09
2023-04-08T13:43:45.829Z,5.88
2023-04-08T13:46:48.839Z,5.93
2023-04-08T13:49:53.963Z,5.89
2023-04-08T13:52:57.405Z,5.98
2023-04-08T13:56:00.638Z,6.06
2023-04-08T13:59:04.182Z,5.92
2023-04-08T14:02:07.625Z,5.84
2023-04-08T14:05:15.625Z,5.89
2023-04-08T14:08:25.858Z,5.78
2023-04-08T14:11:29.014Z,5.82
2023-04-08T14:14:32.226Z,5.88
2023-04-08T14:17:36.806Z,5.98
2023-04-08T14:20:40.399Z,5.98
2023-04-08T14:23:45.680Z,5.90
2023-04-08T14:26:49.354Z,6.04
2023-04-08T14:29:52.664Z,6.05
2023-04-08T14:32:55.781Z,6.18
2023-04-08T14:35:59.986Z,6.02
2023-04-08T14:39:03.820Z,6.10
2023-04-08T14:42:07.236Z,6.18
2023-04-08T14:45:10.904Z,6.33
2023-04-08T14:48:14.172Z,6.30
2023-04-08T14:51:18.146Z,6.52
2023-04-08T14:54:21.901Z,6.25
2023-04-08T14:57:25.715Z,6.19
2023-04-08T15:00:29.124Z,6.06
2023-04-08T15:03:32.625Z,5.97
2023-04-08T15:06:36.487Z,5.97
2023-04-08T15:09:40.119Z,5.80
2023-04-08T15:12:43.580Z,5.77
2023-04-08T15:15:46.750Z,5.67
2023-04-08T15:18:50.147Z,5.74
2023-04-08T15:21:53.422Z,5.65
2023-04-08T15:24:56.526Z,5.68
2023-04-08T15:27:59.680Z,5.69
2023-04-08T15:31:03.735Z,5.64
2023-04-08T15:34:07.205Z,5.66
2023-04-08T15:37:10.493Z,5.67
2023-04-08T15:40:13.873Z,5.66
2023-04-08T15:43:16.925Z,5.73
2023-04-08T15:46:23.215Z,5.71
2023-04-08T15:49:26.621Z,5.74
2023-04-08T15:52:30.148Z,5.76
2023-04-08T15:55:38.877Z,5.71
2023-04-08T15:58:42.896Z,5.81
2023-04-08T16:01:46.126Z,5.76
2023-04-08T16:04:49.246Z,5.80
2023-04-08T16:07:52.709Z,5.69
2023-04-08T16:11:08.026Z,5.76
2023-04-08T16:14:12.005Z,5.73
2023-04-08T16:17:15.051Z,5.73
2023-04-08T16:20:20.642Z,5.66
2023-04-08T16:23:24.373Z,5.76
2023-04-08T16:26:27.637Z,5.67
2023-04-08T16:29:31.853Z,5.79
2023-04-08T16:32:35.254Z,5.68
2023-04-08T16:35:39.073Z,5.64
2023-04-08T16:38:42.644Z,5.69
2023-04-08T16:41:46.138Z,5.73
2023-04-08T16:44:49.250Z,5.71
2023-04-08T16:47:52.854Z,5.69
2023-04-08T16:50:56.826Z,5.65
2023-04-08T16:54:00.440Z,5.61
2023-04-08T16:57:04.076Z,5.53
2023-04-08T17:00:09.223Z,5.60
2023-04-08T17:03:13.078Z,5.61
2023-04-08T17:06:17.497Z,5.51
2023-04-08T17:09:22.248Z,5.59
2023-04-08T17:12:25.756Z,5.53
2023-04-08T17:15:28.958Z,5.53
2023-04-08T17:18:32.266Z,5.49
2023-04-08T17:21:35.632Z,5.45
2023-04-08T17:24:39.090Z,5.42
2023-04-08T17:27:42.102Z,5.45
2023-04-08T17:30:45.144Z,5.43
2023-04-08T17:33:48.801Z,5.47
2023-04-08T17:36:52.453Z,5.35
2023-04-08T17:39:55.699Z,5.35
2023-04-08T17:42:58.935Z,5.29
2023-04-08T17:46:02.285Z,5.31
2023-04-08T17:49:05.910Z,5.32
2023-04-08T17:52:09.218Z,5.22
2023-04-08T17:55:14.052Z,5.21
2023-04-08T17:58:17.147Z,5.21
2023-04-08T18:01:22.923Z,5.19
2023-04-08T18:04:27.911Z,5.17
2023-04-08T18:07:31.263Z,5.20
2023-04-08T18:10:34.912Z,5.05
2023-04-08T18:13:37.976Z,5.10
2023-04-08T18:16:41.180Z,5.12
2023-04-08T18:19:44.799Z,5.13
2023-04-08T18:22:48.974Z,5.16
2023-04-08T18:25:52.375Z,5.25
2023-04-08T18:28:55.715Z,5.18
2023-04-08T18:31:59.035Z,5.11
2023-04-08T18:35:02.242Z,5.09
2023-04-08T18:38:05.550Z,5.09
2023-04-08T18:41:08.941Z,4.94
2023-04-08T18:44:11.930Z,5.03
2023-04-08T18:47:15.442Z,5.02
2023-04-08T18:50:18.375Z,5.01
2023-04-08T18:53:22.753Z,5.05
2023-04-08T18:56:26.025Z,4.96
2023-04-08T18:59:29.296Z,5.01
2023-04-08T19:02:35.512Z,5.01
2023-04-08T19:05:39.036Z,5.09
2023-04-08T19:08:42.133Z,4.99
2023-04-08T19:11:45.385Z,5.01
2023-04-08T19:14:48.569Z,4.99
2023-04-08T19:17:53.059Z,4.97
2023-04-08T19:20:56.662Z,5.03
2023-04-08T19:23:59.740Z,5.08
2023-04-08T19:27:03.717Z,5.11
2023-04-08T19:30:07.764Z,5.06
2023-04-08T19:33:12.004Z,5.09
2023-04-08T19:36:15.685Z,5.04
2023-04-08T19:39:19.352Z,5.05
2023-04-08T19:42:22.926Z,4.95
2023-04-08T19:45:26.283Z,4.90
2023-04-08T19:48:30.276Z,4.94
2023-04-08T19:51:33.775Z,4.98
2023-04-08T19:54:37.285Z,4.98
2023-04-08T19:57:40.563Z,5.04
2023-04-08T20:00:43.779Z,4.98
2023-04-08T20:03:52.926Z,4.95
2023-04-08T20:06:56.135Z,4.88
2023-04-08T20:09:59.487Z,4.71
2023-04-08T20:13:02.980Z,4.75
2023-04-08T20:16:07.641Z,4.81
2023-04-08T20:19:11.118Z,4.84
2023-04-08T20:22:14.309Z,4.88
2023-04-08T20:25:17.602Z,4.80
2023-04-08T20:28:22.308Z,4.79
2023-04-08T20:31:28.542Z,4.82
2023-04-08T20:34:32.023Z,4.74
2023-04-08T20:37:35.728Z,4.85
2023-04-08T20:40:44.251Z,4.87
2023-04-08T20:43:47.574Z,4.78
2023-04-08T20:46:51.099Z,4.81
2023-04-08T20:49:54.612Z,4.84
2023-04-08T20:52:58.639Z,4.84
2023-04-08T20:56:02.876Z,4.82
2023-04-08T20:59:06.473Z,4.75
2023-04-08T21:02:10.313Z,4.74
2023-04-08T21:05:13.778Z,4.69
2023-04-08T21:08:17.111Z,4.69
2023-04-08T21:11:23.033Z,4.68
2023-04-08T21:14:26.323Z,4.65
2023-04-08T21:17:31.293Z,4.71
2023-04-08T21:20:34.741Z,4.67
2023-04-08T21:23:38.044Z,4.79
2023-04-08T21:26:41.039Z,4.76
2023-04-08T21:29:44.646Z,4.69
2023-04-08T21:32:48.295Z,4.60
2023-04-08T21:35:51.879Z,4.57
2023-04-08T21:38:57.157Z,4.52
2023-04-08T21:42:01.682Z,4.54
2023-04-08T21:45:05.087Z,4.57
2023-04-08T21:48:08.372Z,4.50
2023-04-08T21:51:18.533Z,4.54
2023-04-08T21:54:21.865Z,4.57
2023-04-08T21:57:25.230Z,4.54
2023-04-08T22:00:28.705Z,4.51
2023-04-08T22:03:31.876Z,4.39
2023-04-08T22:06:35.067Z,4.44
2023-04-08T22:09:38.570Z,4.39
2023-04-08T22:12:42.035Z,4.42
2023-04-08T22:15:45.183Z,4.38
2023-04-08T22:18:48.432Z,4.45
2023-04-08T22:21:51.873Z,4.48
2023-04-08T22:24:56.691Z,4.48
2023-04-08T22:27:59.704Z,4.36
2023-04-08T22:31:03.210Z,4.43
2023-04-08T22:34:06.628Z,4.39
2023-04-08T22:37:09.969Z,4.51
2023-04-08T22:40:13.406Z,4.47
2023-04-08T22:43:16.823Z,4.47
2023-04-08T22:46:20.179Z,4.48
2023-04-08T22:49:23.992Z,4.46
2023-04-08T22:52:26.971Z,4.48
2023-04-08T22:55:30.832Z,4.55
2023-04-08T22:58:34.029Z,4.56
2023-04-08T23:01:37.715Z,4.44
2023-04-08T23:04:40.986Z,4.44
2023-04-08T23:07:44.228Z,4.47
2023-04-08T23:10:47.680Z,4.38
2023-04-08T23:13:50.802Z,4.49
2023-04-08T23:16:54.143Z,4.50
2023-04-08T23:19:57.265Z,4.53
2023-04-08T23:23:00.269Z,4.42
2023-04-08T23:26:03.390Z,4.47
2023-04-08T23:29:06.643Z,4.47
2023-04-08T23:32:10.196Z,4.44
2023-04-08T23:35:14.142Z,4.42
2023-04-08T23:38:17.210Z,4.41
2023-04-08T23:41:20.843Z,4.47
2023-04-08T23:44:24.444Z,4.57
2023-04-08T23:47:27.678Z,4.43
2023-04-08T23:50:31.836Z,4.52
2023-04-08T23:53:35.308Z,4.53
2023-04-08T23:56:41.136Z,4.54
2023-04-08T23:59:44.185Z,4.50
